ADDS METAR Data INFO
IDs: Format: Raw Decoded Include TAF

Data at: 0919 UTC 13 Dec 2017

KSRR 130915Z AUTO 28009KT CLR 01/M18 A3022 RMK AO2
KSRR 130855Z AUTO 27009KT CLR 01/M18 A3023 RMK AO2
KSRR 130835Z AUTO 28010KT CLR 00/M18 A3023 RMK AO2
KSRR 130815Z AUTO 29006KT CLR 01/M17 A3024 RMK AO2
KSRR 130755Z AUTO 29007KT CLR 00/M17 A3024 RMK AO2
KSRR 130735Z AUTO 26006KT CLR 01/M18 A3026 RMK AO2
KSRR 130715Z AUTO 32003KT CLR 01/M18 A3027 RMK AO2 LTG DSNT W
KSRR 130655Z AUTO 27008KT CLR 01/M18 A3027 RMK AO2
KSRR 130635Z AUTO 28005KT CLR 02/M18 A3029 RMK AO2
KSRR 130615Z AUTO 27008KT CLR 01/M18 A3029 RMK AO2
KSRR 130555Z AUTO 27008KT CLR 01/M17 A3030 RMK AO2
KSRR 130535Z AUTO 25006KT CLR 00/M17 A3030 RMK AO2
KSRR 130515Z AUTO 24004KT CLR 00/M17 A3031 RMK AO2
KSRR 130455Z AUTO 25010KT CLR 01/M17 A3031 RMK AO2
KSRR 130435Z AUTO 25006KT CLR 01/M17 A3031 RMK AO2
KSRR 130415Z AUTO 27009KT CLR 02/M17 A3031 RMK AO2
KSRR 130355Z AUTO 25012KT CLR 01/M17 A3032 RMK AO2
KSRR 130335Z AUTO 25008KT CLR 02/M17 A3032 RMK AO2
KSRR 130315Z AUTO 26009KT CLR 02/M17 A3033 RMK AO2
KSRR 130255Z AUTO 25009KT CLR 02/M17 A3033 RMK AO2
KSRR 130235Z AUTO 26008KT CLR 02/M17 A3034 RMK AO2
KSRR 130215Z AUTO 26010KT CLR 02/M17 A3034 RMK AO2
KSRR 130155Z AUTO 28009KT CLR 03/M17 A3034 RMK AO2
KSRR 130135Z AUTO 28008KT 10SM CLR 03/M17 A3035 RMK AO2
KSRR 130115Z AUTO 28007KT 10SM CLR 03/M17 A3035 RMK AO2
KSRR 130055Z AUTO 29008KT 10SM FEW028 03/M17 A3035 RMK AO2
KSRR 130035Z AUTO 29008KT 10SM CLR 04/M17 A3035 RMK AO2
KSRR 130015Z AUTO 29009KT 10SM CLR 05/M17 A3035 RMK AO2
KSRR 122355Z AUTO 30008KT 10SM CLR 06/M17 A3035 RMK AO2
KSRR 122335Z AUTO 30009KT 10SM CLR 07/M17 A3036 RMK AO2
KSRR 122315Z AUTO 30008KT 10SM CLR 08/M17 A3036 RMK AO2
KSRR 122255Z AUTO 31009KT 10SM CLR 09/M17 A3037 RMK AO2
KSRR 122235Z AUTO 31008KT 10SM CLR 10/M17 A3037 RMK AO2
KSRR 122215Z AUTO 30008KT 10SM CLR 10/M17 A3038 RMK AO2
KSRR 122155Z AUTO 31009KT 10SM CLR 11/M17 A3038 RMK AO2
KSRR 122135Z AUTO 32009KT 10SM CLR 11/M17 A3038 RMK AO2
KSRR 122115Z AUTO 35009KT 10SM CLR 12/M17 A3039 RMK AO2
KSRR 122055Z AUTO 34006KT 10SM CLR 12/M16 A3040 RMK AO2
KSRR 122035Z AUTO 36008KT 10SM CLR 12/M17 A3041 RMK AO2
KSRR 122015Z AUTO 07005KT 10SM CLR 12/M15 A3042 RMK AO2
KSRR 121955Z AUTO 01005KT 10SM CLR 11/M15 A3043 RMK AO2
KSRR 121935Z AUTO 00000KT 10SM CLR 10/M15 A3044 RMK AO2
KSRR 121915Z AUTO 05005KT 10SM CLR 10/M15 A3045 RMK AO2 LTG DSNT W
KSRR 121855Z AUTO 00000KT 10SM CLR 10/M15 A3047 RMK AO2
KSRR 121835Z AUTO 00000KT 10SM CLR 09/M14 A3048 RMK AO2
KSRR 121815Z AUTO 15003KT 10SM CLR 09/M14 A3050 RMK AO2
KSRR 121755Z AUTO 22004KT 10SM CLR 08/M14 A3051 RMK AO2
KSRR 121735Z AUTO 19003KT 10SM CLR 07/M14 A3053 RMK AO2
KSRR 121715Z AUTO 00000KT CLR 05/M14 A3054 RMK AO2
KSRR 121655Z AUTO 00000KT CLR 05/M14 A3054 RMK AO2
KSRR 121635Z AUTO 17005KT CLR 04/M14 A3054 RMK AO2
KSRR 121615Z AUTO 13005KT CLR 03/M14 A3054 RMK AO2
KSRR 121555Z AUTO 16005KT CLR 03/M14 A3054 RMK AO2
KSRR 121535Z AUTO 17004KT CLR 02/M15 A3055 RMK AO2
KSRR 121515Z AUTO 20004KT CLR 01/M15 A3055 RMK AO2
KSRR 121455Z AUTO 19005KT CLR M01/M15 A3055 RMK AO2
KSRR 121435Z AUTO 19007KT CLR M02/M15 A3054 RMK AO2
KSRR 121415Z AUTO 20005KT CLR M02/M16 A3054 RMK AO2
KSRR 121355Z AUTO 18007KT CLR M03/M16 A3054 RMK AO2
KSRR 121335Z AUTO 15007KT SCT026 M03/M16 A3054 RMK AO2
KSRR 121315Z AUTO 14007KT SCT026 M02/M16 A3053 RMK AO2
KSRR 121255Z AUTO 19004KT FEW026 00/M15 A3053 RMK AO2
KSRR 121235Z AUTO 20006KT FEW028 00/M15 A3052 RMK AO2
KSRR 121215Z AUTO 20005KT FEW030 00/M15 A3052 RMK AO2
KSRR 121155Z AUTO 20005KT CLR 01/M15 A3052 RMK AO2
KSRR 121135Z AUTO 21005KT CLR 01/M16 A3052 RMK AO2
KSRR 121115Z AUTO 21005KT CLR 00/M16 A3052 RMK AO2 LTG DSNT W
KSRR 121055Z AUTO 22005KT CLR 00/M16 A3052 RMK AO2
KSRR 121035Z AUTO 22005KT CLR 01/M17 A3052 RMK AO2
KSRR 121015Z AUTO 22006KT CLR 00/M17 A3053 RMK AO2
KSRR 120955Z AUTO 22007KT CLR 00/M17 A3053 RMK AO2
KSRR 120935Z AUTO 21006KT CLR 00/M17 A3053 RMK AO2
KSRR 120915Z AUTO 21007KT CLR 00/M18 A3053 RMK AO2
KSRR 120855Z AUTO 21007KT CLR 00/M18 A3053 RMK AO2
KSRR 120835Z AUTO 21008KT CLR 00/M18 A3053 RMK AO2
KSRR 120815Z AUTO 21008KT CLR M01/M18 A3052 RMK AO2
KSRR 120755Z AUTO 20007KT CLR 00/M18 A3052 RMK AO2
KSRR 120735Z AUTO 20007KT CLR 00/M18 A3052 RMK AO2
KSRR 120715Z AUTO 19005KT CLR 01/M18 A3052 RMK AO2
KSRR 120655Z AUTO 15008KT CLR 02/M18 A3052 RMK AO2
KSRR 120635Z AUTO 15008KT CLR 03/M18 A3052 RMK AO2
KSRR 120615Z AUTO 12009KT CLR 03/M18 A3051 RMK AO2
KSRR 120555Z AUTO 12009KT CLR 03/M18 A3050 RMK AO2
KSRR 120535Z AUTO 13006KT CLR 03/M19 A3049 RMK AO2
KSRR 120515Z AUTO 10007KT CLR 04/M19 A3048 RMK AO2
KSRR 120455Z AUTO 08003KT CLR 05/M19 A3047 RMK AO2
KSRR 120435Z AUTO 05003KT CLR 05/M19 A3046 RMK AO2
KSRR 120415Z AUTO 00000KT CLR 05/M20 A3045 RMK AO2
KSRR 120355Z AUTO 00000KT CLR 06/M20 A3045 RMK AO2
KSRR 120335Z AUTO 00000KT CLR 06/M20 A3044 RMK AO2
KSRR 120315Z AUTO 20006KT CLR 05/M20 A3043 RMK AO2
KSRR 120255Z AUTO 20007KT CLR 05/M20 A3043 RMK AO2
KSRR 120235Z AUTO 16004KT CLR 08/M20 A3043 RMK AO2
KSRR 120215Z AUTO 18003KT CLR 09/M20 A3043 RMK AO2
KSRR 120155Z AUTO 19004KT CLR 08/M20 A3042 RMK AO2
KSRR 120135Z AUTO 20004KT CLR 08/M20 A3041 RMK AO2
KSRR 120115Z AUTO 00000KT CLR 10/M20 A3041 RMK AO2
KSRR 120055Z AUTO 14003KT CLR 10/M20 A3040 RMK AO2
KSRR 120035Z AUTO 17004KT CLR 09/M20 A3040 RMK AO2
KSRR 120015Z AUTO 24004KT CLR 11/M20 A3039 RMK AO2
KSRR 112355Z AUTO 27004KT CLR 11/M19 A3038 RMK AO2
KSRR 112335Z AUTO 30004KT CLR 12/M19 A3038 RMK AO2
KSRR 112315Z AUTO 33003KT CLR 13/M19 A3037 RMK AO2
KSRR 112255Z AUTO 31006KT CLR 13/M20 A3037 RMK AO2
KSRR 112235Z AUTO 30006KT CLR 13/M20 A3037 RMK AO2
KSRR 112215Z AUTO 31006KT CLR 13/M22 A3037 RMK AO2
KSRR 112155Z AUTO 32008KT CLR 13/M22 A3036 RMK AO2
KSRR 112135Z AUTO 32009KT CLR 14/M23 A3036 RMK AO2